sensor_id;sensor_type;location;lat;lon;timestamp;P1;durP1;ratioP1;P2;durP2;ratioP2
64959;SDS011;51487;52.266;10.542;2022-08-04T00:11:19;7.60;;;2.90;;
64959;SDS011;51487;52.266;10.542;2022-08-04T00:13:56;6.40;;;3.40;;
64959;SDS011;51487;52.266;10.542;2022-08-04T00:16:35;5.75;;;3.15;;
64959;SDS011;51487;52.266;10.542;2022-08-04T00:19:06;4.70;;;3.30;;
64959;SDS011;51487;52.266;10.542;2022-08-04T00:21:41;7.50;;;3.25;;
64959;SDS011;51487;52.266;10.542;2022-08-04T00:24:22;3.25;;;2.95;;
64959;SDS011;51487;52.266;10.542;2022-08-04T00:26:50;4.53;;;3.33;;
64959;SDS011;51487;52.266;10.542;2022-08-04T00:29:18;7.75;;;3.00;;
64959;SDS011;51487;52.266;10.542;2022-08-04T00:31:45;6.00;;;3.55;;
64959;SDS011;51487;52.266;10.542;2022-08-04T00:34:11;6.28;;;2.90;;
64959;SDS011;51487;52.266;10.542;2022-08-04T00:36:39;4.70;;;3.30;;
64959;SDS011;51487;52.266;10.542;2022-08-04T00:39:08;12.57;;;3.60;;
64959;SDS011;51487;52.266;10.542;2022-08-04T00:44:45;5.75;;;3.40;;
64959;SDS011;51487;52.266;10.542;2022-08-04T00:49:56;9.63;;;3.20;;
64959;SDS011;51487;52.266;10.542;2022-08-04T00:58:15;8.18;;;3.20;;
64959;SDS011;51487;52.266;10.542;2022-08-04T01:20:34;7.18;;;3.13;;
64959;SDS011;51487;52.266;10.542;2022-08-04T01:23:28;6.95;;;3.08;;
64959;SDS011;51487;52.266;10.542;2022-08-04T01:34:51;5.35;;;3.15;;
64959;SDS011;51487;52.266;10.542;2022-08-04T01:40:08;4.40;;;3.08;;
64959;SDS011;51487;52.266;10.542;2022-08-04T01:42:38;4.88;;;3.00;;
64959;SDS011;51487;52.266;10.542;2022-08-04T01:45:10;5.00;;;2.88;;
64959;SDS011;51487;52.266;10.542;2022-08-04T01:47:39;5.85;;;3.20;;
64959;SDS011;51487;52.266;10.542;2022-08-04T01:50:14;7.00;;;2.88;;
64959;SDS011;51487;52.266;10.542;2022-08-04T01:52:40;4.65;;;3.10;;
64959;SDS011;51487;52.266;10.542;2022-08-04T01:55:09;4.57;;;3.00;;
64959;SDS011;51487;52.266;10.542;2022-08-04T01:57:44;3.97;;;2.80;;
64959;SDS011;51487;52.266;10.542;2022-08-04T02:00:11;4.95;;;2.80;;
64959;SDS011;51487;52.266;10.542;2022-08-04T02:02:41;5.57;;;2.95;;
64959;SDS011;51487;52.266;10.542;2022-08-04T02:05:09;5.40;;;2.70;;
64959;SDS011;51487;52.266;10.542;2022-08-04T02:10:29;4.97;;;2.78;;
64959;SDS011;51487;52.266;10.542;2022-08-04T02:13:38;4.72;;;2.72;;
64959;SDS011;51487;52.266;10.542;2022-08-04T02:22:07;5.90;;;2.75;;
64959;SDS011;51487;52.266;10.542;2022-08-04T02:24:47;3.78;;;2.78;;
64959;SDS011;51487;52.266;10.542;2022-08-04T02:27:24;3.72;;;2.70;;
64959;SDS011;51487;52.266;10.542;2022-08-04T02:30:02;4.72;;;2.60;;
64959;SDS011;51487;52.266;10.542;2022-08-04T02:32:31;4.78;;;2.83;;
64959;SDS011;51487;52.266;10.542;2022-08-04T02:35:24;4.13;;;2.60;;
64959;SDS011;51487;52.266;10.542;2022-08-04T02:38:39;6.57;;;2.85;;
64959;SDS011;51487;52.266;10.542;2022-08-04T02:41:23;8.15;;;2.80;;
64959;SDS011;51487;52.266;10.542;2022-08-04T02:43:51;6.43;;;2.75;;
64959;SDS011;51487;52.266;10.542;2022-08-04T02:46:27;4.63;;;2.92;;
64959;SDS011;51487;52.266;10.542;2022-08-04T02:48:55;5.72;;;2.53;;
64959;SDS011;51487;52.266;10.542;2022-08-04T02:51:34;4.53;;;2.80;;
64959;SDS011;51487;52.266;10.542;2022-08-04T02:54:05;5.05;;;2.70;;
64959;SDS011;51487;52.266;10.542;2022-08-04T02:56:32;7.00;;;2.83;;
64959;SDS011;51487;52.266;10.542;2022-08-04T02:59:04;5.50;;;2.60;;
64959;SDS011;51487;52.266;10.542;2022-08-04T03:01:35;5.07;;;2.72;;
64959;SDS011;51487;52.266;10.542;2022-08-04T03:04:19;3.00;;;2.70;;
64959;SDS011;51487;52.266;10.542;2022-08-04T03:14:06;4.18;;;2.80;;
64959;SDS011;51487;52.266;10.542;2022-08-04T03:16:34;4.60;;;2.60;;
64959;SDS011;51487;52.266;10.542;2022-08-04T03:19:28;7.43;;;3.17;;
64959;SDS011;51487;52.266;10.542;2022-08-04T03:40:44;3.20;;;2.53;;
64959;SDS011;51487;52.266;10.542;2022-08-04T03:46:40;4.38;;;3.20;;
64959;SDS011;51487;52.266;10.542;2022-08-04T03:55:27;5.38;;;3.03;;
64959;SDS011;51487;52.266;10.542;2022-08-04T04:05:08;8.23;;;2.80;;
64959;SDS011;51487;52.266;10.542;2022-08-04T04:23:02;10.52;;;3.30;;
64959;SDS011;51487;52.266;10.542;2022-08-04T04:46:02;5.75;;;3.10;;
64959;SDS011;51487;52.266;10.542;2022-08-04T04:48:52;7.25;;;3.50;;
64959;SDS011;51487;52.266;10.542;2022-08-04T04:51:34;11.40;;;3.90;;
64959;SDS011;51487;52.266;10.542;2022-08-04T04:54:55;11.73;;;4.53;;
64959;SDS011;51487;52.266;10.542;2022-08-04T04:57:35;6.88;;;3.63;;
64959;SDS011;51487;52.266;10.542;2022-08-04T05:00:04;7.68;;;4.05;;
64959;SDS011;51487;52.266;10.542;2022-08-04T05:02:58;7.53;;;3.90;;
64959;SDS011;51487;52.266;10.542;2022-08-04T05:14:33;5.82;;;3.60;;
64959;SDS011;51487;52.266;10.542;2022-08-04T05:17:13;7.55;;;3.25;;
64959;SDS011;51487;52.266;10.542;2022-08-04T05:19:54;8.32;;;3.55;;
64959;SDS011;51487;52.266;10.542;2022-08-04T05:22:38;9.20;;;3.88;;
64959;SDS011;51487;52.266;10.542;2022-08-04T05:27:50;6.40;;;3.20;;
64959;SDS011;51487;52.266;10.542;2022-08-04T05:30:29;8.52;;;3.83;;
64959;SDS011;51487;52.266;10.542;2022-08-04T05:33:02;6.63;;;3.58;;
64959;SDS011;51487;52.266;10.542;2022-08-04T05:35:35;6.90;;;3.28;;
64959;SDS011;51487;52.266;10.542;2022-08-04T05:38:08;7.45;;;3.70;;
64959;SDS011;51487;52.266;10.542;2022-08-04T05:40:39;4.97;;;3.10;;
64959;SDS011;51487;52.266;10.542;2022-08-04T05:43:07;9.35;;;3.83;;
64959;SDS011;51487;52.266;10.542;2022-08-04T05:45:35;7.50;;;3.67;;
64959;SDS011;51487;52.266;10.542;2022-08-04T05:48:01;8.85;;;4.00;;
64959;SDS011;51487;52.266;10.542;2022-08-04T05:50:30;5.90;;;3.13;;
64959;SDS011;51487;52.266;10.542;2022-08-04T05:52:57;6.40;;;3.67;;
64959;SDS011;51487;52.266;10.542;2022-08-04T05:55:25;7.53;;;3.60;;
64959;SDS011;51487;52.266;10.542;2022-08-04T05:57:53;6.43;;;3.67;;
64959;SDS011;51487;52.266;10.542;2022-08-04T06:00:23;4.35;;;3.40;;
64959;SDS011;51487;52.266;10.542;2022-08-04T06:02:52;6.55;;;3.13;;
64959;SDS011;51487;52.266;10.542;2022-08-04T06:05:20;7.38;;;3.00;;
64959;SDS011;51487;52.266;10.542;2022-08-04T06:07:47;5.50;;;2.95;;
64959;SDS011;51487;52.266;10.542;2022-08-04T06:10:14;14.45;;;3.17;;
64959;SDS011;51487;52.266;10.542;2022-08-04T06:12:43;8.05;;;3.10;;
64959;SDS011;51487;52.266;10.542;2022-08-04T06:15:27;10.50;;;3.10;;
64959;SDS011;51487;52.266;10.542;2022-08-04T06:18:00;5.28;;;2.88;;
64959;SDS011;51487;52.266;10.542;2022-08-04T06:20:32;5.35;;;2.72;;
64959;SDS011;51487;52.266;10.542;2022-08-04T06:23:03;7.00;;;2.60;;
64959;SDS011;51487;52.266;10.542;2022-08-04T06:25:38;5.28;;;2.40;;
64959;SDS011;51487;52.266;10.542;2022-08-04T06:28:15;7.20;;;2.47;;
64959;SDS011;51487;52.266;10.542;2022-08-04T06:30:43;7.57;;;2.80;;
64959;SDS011;51487;52.266;10.542;2022-08-04T06:33:13;7.53;;;2.30;;
64959;SDS011;51487;52.266;10.542;2022-08-04T06:35:58;4.15;;;2.60;;
64959;SDS011;51487;52.266;10.542;2022-08-04T06:38:28;4.90;;;2.30;;
64959;SDS011;51487;52.266;10.542;2022-08-04T06:40:57;4.65;;;2.75;;
64959;SDS011;51487;52.266;10.542;2022-08-04T06:43:27;5.03;;;2.72;;
64959;SDS011;51487;52.266;10.542;2022-08-04T06:45:56;6.18;;;2.70;;
64959;SDS011;51487;52.266;10.542;2022-08-04T06:48:26;4.28;;;2.72;;
64959;SDS011;51487;52.266;10.542;2022-08-04T06:50:53;4.13;;;2.30;;
64959;SDS011;51487;52.266;10.542;2022-08-04T06:53:21;8.77;;;2.50;;
64959;SDS011;51487;52.266;10.542;2022-08-04T06:55:48;13.13;;;2.40;;
64959;SDS011;51487;52.266;10.542;2022-08-04T06:58:16;4.97;;;2.40;;
64959;SDS011;51487;52.266;10.542;2022-08-04T07:00:46;3.92;;;2.25;;
64959;SDS011;51487;52.266;10.542;2022-08-04T07:03:14;8.40;;;2.40;;
64959;SDS011;51487;52.266;10.542;2022-08-04T07:05:45;4.05;;;2.03;;
64959;SDS011;51487;52.266;10.542;2022-08-04T07:08:13;4.13;;;2.20;;
64959;SDS011;51487;52.266;10.542;2022-08-04T07:10:39;6.10;;;2.25;;
64959;SDS011;51487;52.266;10.542;2022-08-04T07:13:06;7.82;;;2.30;;
64959;SDS011;51487;52.266;10.542;2022-08-04T07:15:33;3.92;;;2.33;;
64959;SDS011;51487;52.266;10.542;2022-08-04T07:18:04;8.40;;;2.20;;
64959;SDS011;51487;52.266;10.542;2022-08-04T07:20:31;3.05;;;1.92;;
64959;SDS011;51487;52.266;10.542;2022-08-04T07:22:58;2.22;;;1.70;;
64959;SDS011;51487;52.266;10.542;2022-08-04T07:25:26;3.83;;;2.50;;
64959;SDS011;51487;52.266;10.542;2022-08-04T07:27:53;7.20;;;2.00;;
64959;SDS011;51487;52.266;10.542;2022-08-04T07:30:19;6.90;;;2.08;;
64959;SDS011;51487;52.266;10.542;2022-08-04T07:32:46;5.40;;;2.17;;
64959;SDS011;51487;52.266;10.542;2022-08-04T07:35:12;4.72;;;2.38;;
64959;SDS011;51487;52.266;10.542;2022-08-04T07:37:40;3.70;;;1.70;;
64959;SDS011;51487;52.266;10.542;2022-08-04T07:40:06;3.55;;;1.90;;
64959;SDS011;51487;52.266;10.542;2022-08-04T07:42:33;6.43;;;2.30;;
64959;SDS011;51487;52.266;10.542;2022-08-04T07:44:59;3.95;;;1.75;;
64959;SDS011;51487;52.266;10.542;2022-08-04T07:47:25;3.17;;;1.90;;
64959;SDS011;51487;52.266;10.542;2022-08-04T07:49:51;4.10;;;1.90;;
64959;SDS011;51487;52.266;10.542;2022-08-04T07:52:18;7.15;;;2.13;;
64959;SDS011;51487;52.266;10.542;2022-08-04T07:54:45;7.07;;;1.80;;
64959;SDS011;51487;52.266;10.542;2022-08-04T07:57:11;4.70;;;1.60;;
64959;SDS011;51487;52.266;10.542;2022-08-04T07:59:37;6.97;;;2.00;;
64959;SDS011;51487;52.266;10.542;2022-08-04T08:02:02;4.40;;;1.80;;
64959;SDS011;51487;52.266;10.542;2022-08-04T08:04:28;4.30;;;1.90;;
64959;SDS011;51487;52.266;10.542;2022-08-04T08:06:55;4.68;;;1.85;;
64959;SDS011;51487;52.266;10.542;2022-08-04T08:09:22;3.10;;;1.60;;
64959;SDS011;51487;52.266;10.542;2022-08-04T08:11:48;5.18;;;2.25;;
64959;SDS011;51487;52.266;10.542;2022-08-04T08:14:16;3.45;;;1.80;;
64959;SDS011;51487;52.266;10.542;2022-08-04T08:16:44;5.25;;;1.63;;
64959;SDS011;51487;52.266;10.542;2022-08-04T08:19:11;2.45;;;1.98;;
64959;SDS011;51487;52.266;10.542;2022-08-04T08:21:38;5.60;;;1.70;;
64959;SDS011;51487;52.266;10.542;2022-08-04T08:24:04;3.63;;;1.77;;
64959;SDS011;51487;52.266;10.542;2022-08-04T08:26:30;3.65;;;1.80;;
64959;SDS011;51487;52.266;10.542;2022-08-04T08:28:56;6.20;;;2.03;;
64959;SDS011;51487;52.266;10.542;2022-08-04T08:31:22;3.67;;;1.60;;
64959;SDS011;51487;52.266;10.542;2022-08-04T08:33:48;4.57;;;1.85;;
64959;SDS011;51487;52.266;10.542;2022-08-04T08:36:18;4.05;;;1.73;;
64959;SDS011;51487;52.266;10.542;2022-08-04T08:39:02;5.72;;;1.70;;
64959;SDS011;51487;52.266;10.542;2022-08-04T08:48:06;6.20;;;2.15;;
64959;SDS011;51487;52.266;10.542;2022-08-04T08:54:07;3.40;;;1.85;;
64959;SDS011;51487;52.266;10.542;2022-08-04T09:05:58;6.55;;;1.95;;
64959;SDS011;51487;52.266;10.542;2022-08-04T09:17:41;2.03;;;1.58;;
64959;SDS011;51487;52.266;10.542;2022-08-04T09:26:18;4.55;;;1.85;;
64959;SDS011;51487;52.266;10.542;2022-08-04T09:29:20;4.45;;;1.60;;
64959;SDS011;51487;52.266;10.542;2022-08-04T09:35:08;4.68;;;1.50;;
64959;SDS011;51487;52.266;10.542;2022-08-04T09:38:46;3.05;;;2.05;;
64959;SDS011;51487;52.266;10.542;2022-08-04T09:41:40;4.88;;;1.90;;
64959;SDS011;51487;52.266;10.542;2022-08-04T09:44:39;5.50;;;1.80;;
64959;SDS011;51487;52.266;10.542;2022-08-04T09:50:34;3.00;;;1.60;;
64959;SDS011;51487;52.266;10.542;2022-08-04T09:59:34;4.32;;;1.83;;
64959;SDS011;51487;52.266;10.542;2022-08-04T10:02:36;6.13;;;1.73;;
64959;SDS011;51487;52.266;10.542;2022-08-04T10:05:17;3.00;;;1.88;;
64959;SDS011;51487;52.266;10.542;2022-08-04T10:08:01;4.25;;;1.65;;
64959;SDS011;51487;52.266;10.542;2022-08-04T10:10:35;4.15;;;1.80;;
64959;SDS011;51487;52.266;10.542;2022-08-04T10:13:22;3.78;;;1.60;;
64959;SDS011;51487;52.266;10.542;2022-08-04T10:16:37;4.80;;;1.77;;
64959;SDS011;51487;52.266;10.542;2022-08-04T10:19:26;2.92;;;1.83;;
64959;SDS011;51487;52.266;10.542;2022-08-04T10:27:53;3.70;;;1.70;;
64959;SDS011;51487;52.266;10.542;2022-08-04T10:30:24;2.05;;;1.83;;
64959;SDS011;51487;52.266;10.542;2022-08-04T10:35:34;4.93;;;1.70;;
64959;SDS011;51487;52.266;10.542;2022-08-04T10:38:14;3.08;;;1.90;;
64959;SDS011;51487;52.266;10.542;2022-08-04T10:41:00;2.78;;;1.92;;
64959;SDS011;51487;52.266;10.542;2022-08-04T10:47:03;9.25;;;2.50;;
64959;SDS011;51487;52.266;10.542;2022-08-04T10:49:42;5.97;;;1.80;;
64959;SDS011;51487;52.266;10.542;2022-08-04T10:55:26;3.92;;;1.70;;
64959;SDS011;51487;52.266;10.542;2022-08-04T10:58:01;3.47;;;1.70;;
64959;SDS011;51487;52.266;10.542;2022-08-04T11:00:38;3.10;;;1.60;;
64959;SDS011;51487;52.266;10.542;2022-08-04T11:03:25;2.00;;;1.80;;
64959;SDS011;51487;52.266;10.542;2022-08-04T11:06:13;4.88;;;1.60;;
64959;SDS011;51487;52.266;10.542;2022-08-04T11:08:44;5.57;;;1.60;;
64959;SDS011;51487;52.266;10.542;2022-08-04T11:14:03;6.53;;;1.80;;
64959;SDS011;51487;52.266;10.542;2022-08-04T11:16:46;2.78;;;1.65;;
64959;SDS011;51487;52.266;10.542;2022-08-04T11:22:26;5.80;;;1.63;;
64959;SDS011;51487;52.266;10.542;2022-08-04T11:36:48;2.15;;;1.70;;
64959;SDS011;51487;52.266;10.542;2022-08-04T11:53:06;5.28;;;1.73;;
64959;SDS011;51487;52.266;10.542;2022-08-04T11:55:34;4.20;;;2.00;;
64959;SDS011;51487;52.266;10.542;2022-08-04T11:58:03;2.67;;;1.50;;
64959;SDS011;51487;52.266;10.542;2022-08-04T12:00:30;3.33;;;1.50;;
64959;SDS011;51487;52.266;10.542;2022-08-04T12:03:10;4.65;;;1.42;;
64959;SDS011;51487;52.266;10.542;2022-08-04T12:08:42;2.60;;;1.60;;
64959;SDS011;51487;52.266;10.542;2022-08-04T12:11:48;2.70;;;1.25;;
64959;SDS011;51487;52.266;10.542;2022-08-04T12:14:32;3.28;;;1.70;;
64959;SDS011;51487;52.266;10.542;2022-08-04T12:17:15;4.45;;;1.42;;
64959;SDS011;51487;52.266;10.542;2022-08-04T12:19:56;1.65;;;1.38;;
64959;SDS011;51487;52.266;10.542;2022-08-04T12:22:31;3.08;;;1.63;;
64959;SDS011;51487;52.266;10.542;2022-08-04T12:25:06;4.28;;;1.60;;
64959;SDS011;51487;52.266;10.542;2022-08-04T12:27:41;2.17;;;1.60;;
64959;SDS011;51487;52.266;10.542;2022-08-04T12:30:16;2.13;;;1.58;;
64959;SDS011;51487;52.266;10.542;2022-08-04T12:32:52;2.00;;;1.42;;
64959;SDS011;51487;52.266;10.542;2022-08-04T12:35:33;2.17;;;1.48;;
64959;SDS011;51487;52.266;10.542;2022-08-04T12:38:05;3.95;;;1.48;;
64959;SDS011;51487;52.266;10.542;2022-08-04T12:40:48;3.45;;;1.60;;
64959;SDS011;51487;52.266;10.542;2022-08-04T12:43:18;5.03;;;1.50;;
64959;SDS011;51487;52.266;10.542;2022-08-04T12:46:04;1.70;;;1.50;;
64959;SDS011;51487;52.266;10.542;2022-08-04T12:48:34;3.72;;;1.67;;
64959;SDS011;51487;52.266;10.542;2022-08-04T12:51:02;3.95;;;1.70;;
64959;SDS011;51487;52.266;10.542;2022-08-04T12:53:36;6.68;;;1.50;;
64959;SDS011;51487;52.266;10.542;2022-08-04T12:56:08;1.90;;;1.60;;
64959;SDS011;51487;52.266;10.542;2022-08-04T12:58:38;3.90;;;1.63;;
64959;SDS011;51487;52.266;10.542;2022-08-04T13:03:44;2.58;;;1.60;;
64959;SDS011;51487;52.266;10.542;2022-08-04T13:06:16;2.00;;;1.80;;
64959;SDS011;51487;52.266;10.542;2022-08-04T13:08:51;5.32;;;1.80;;
64959;SDS011;51487;52.266;10.542;2022-08-04T13:11:19;6.47;;;1.83;;
64959;SDS011;51487;52.266;10.542;2022-08-04T13:13:47;4.22;;;1.70;;
64959;SDS011;51487;52.266;10.542;2022-08-04T13:16:27;1.58;;;1.48;;
64959;SDS011;51487;52.266;10.542;2022-08-04T13:18:57;2.50;;;1.67;;
64959;SDS011;51487;52.266;10.542;2022-08-04T13:21:27;5.60;;;2.22;;
64959;SDS011;51487;52.266;10.542;2022-08-04T13:23:56;4.60;;;1.80;;
64959;SDS011;51487;52.266;10.542;2022-08-04T13:26:27;3.00;;;1.90;;
64959;SDS011;51487;52.266;10.542;2022-08-04T13:28:56;3.22;;;1.90;;
64959;SDS011;51487;52.266;10.542;2022-08-04T13:31:25;2.58;;;1.80;;
64959;SDS011;51487;52.266;10.542;2022-08-04T13:33:54;1.80;;;1.70;;
64959;SDS011;51487;52.266;10.542;2022-08-04T13:36:29;3.08;;;1.67;;
64959;SDS011;51487;52.266;10.542;2022-08-04T13:38:57;6.32;;;1.70;;
64959;SDS011;51487;52.266;10.542;2022-08-04T13:41:28;2.05;;;1.70;;
64959;SDS011;51487;52.266;10.542;2022-08-04T13:43:56;3.92;;;2.28;;
64959;SDS011;51487;52.266;10.542;2022-08-04T13:46:27;5.65;;;2.25;;
64959;SDS011;51487;52.266;10.542;2022-08-04T13:48:58;3.53;;;2.08;;
64959;SDS011;51487;52.266;10.542;2022-08-04T13:51:26;3.90;;;1.90;;
64959;SDS011;51487;52.266;10.542;2022-08-04T13:53:56;3.47;;;1.70;;
64959;SDS011;51487;52.266;10.542;2022-08-04T13:56:35;3.85;;;2.63;;
64959;SDS011;51487;52.266;10.542;2022-08-04T13:59:07;2.35;;;1.73;;
64959;SDS011;51487;52.266;10.542;2022-08-04T14:01:37;2.63;;;1.60;;
64959;SDS011;51487;52.266;10.542;2022-08-04T14:04:10;4.20;;;1.60;;
64959;SDS011;51487;52.266;10.542;2022-08-04T14:09:25;2.78;;;1.60;;
64959;SDS011;51487;52.266;10.542;2022-08-04T14:11:53;2.67;;;1.67;;
64959;SDS011;51487;52.266;10.542;2022-08-04T14:14:29;4.03;;;1.90;;
64959;SDS011;51487;52.266;10.542;2022-08-04T14:17:07;4.72;;;1.77;;
64959;SDS011;51487;52.266;10.542;2022-08-04T14:24:56;3.70;;;1.90;;
64959;SDS011;51487;52.266;10.542;2022-08-04T14:30:26;3.30;;;1.58;;
64959;SDS011;51487;52.266;10.542;2022-08-04T14:35:32;5.63;;;1.80;;
64959;SDS011;51487;52.266;10.542;2022-08-04T14:38:09;2.92;;;1.70;;
64959;SDS011;51487;52.266;10.542;2022-08-04T14:40:36;2.85;;;1.70;;
64959;SDS011;51487;52.266;10.542;2022-08-04T14:43:05;2.63;;;1.60;;
64959;SDS011;51487;52.266;10.542;2022-08-04T14:45:33;3.42;;;1.65;;
64959;SDS011;51487;52.266;10.542;2022-08-04T14:47:59;3.83;;;1.70;;
64959;SDS011;51487;52.266;10.542;2022-08-04T14:50:46;1.77;;;1.52;;
64959;SDS011;51487;52.266;10.542;2022-08-04T14:53:20;2.80;;;1.70;;
64959;SDS011;51487;52.266;10.542;2022-08-04T14:55:57;4.75;;;1.80;;
64959;SDS011;51487;52.266;10.542;2022-08-04T14:58:25;2.00;;;1.70;;
64959;SDS011;51487;52.266;10.542;2022-08-04T15:00:55;4.28;;;1.75;;
64959;SDS011;51487;52.266;10.542;2022-08-04T15:03:24;4.60;;;1.70;;
64959;SDS011;51487;52.266;10.542;2022-08-04T15:05:52;5.72;;;1.80;;
64959;SDS011;51487;52.266;10.542;2022-08-04T15:08:20;3.33;;;1.80;;
64959;SDS011;51487;52.266;10.542;2022-08-04T15:10:47;3.72;;;1.80;;
64959;SDS011;51487;52.266;10.542;2022-08-04T15:13:12;3.75;;;1.73;;
64959;SDS011;51487;52.266;10.542;2022-08-04T15:15:39;3.97;;;1.50;;
64959;SDS011;51487;52.266;10.542;2022-08-04T15:18:07;2.50;;;2.10;;
64959;SDS011;51487;52.266;10.542;2022-08-04T15:20:33;4.43;;;1.90;;
64959;SDS011;51487;52.266;10.542;2022-08-04T15:23:02;3.58;;;1.80;;
64959;SDS011;51487;52.266;10.542;2022-08-04T15:25:33;5.63;;;2.10;;
64959;SDS011;51487;52.266;10.542;2022-08-04T15:28:04;4.65;;;1.63;;
64959;SDS011;51487;52.266;10.542;2022-08-04T15:30:36;4.65;;;1.90;;
64959;SDS011;51487;52.266;10.542;2022-08-04T15:33:03;5.07;;;2.10;;
64959;SDS011;51487;52.266;10.542;2022-08-04T15:35:31;3.47;;;1.90;;
64959;SDS011;51487;52.266;10.542;2022-08-04T15:43:23;11.70;;;2.13;;
64959;SDS011;51487;52.266;10.542;2022-08-04T15:45:58;5.47;;;2.08;;
64959;SDS011;51487;52.266;10.542;2022-08-04T15:48:26;3.38;;;2.13;;
64959;SDS011;51487;52.266;10.542;2022-08-04T15:53:24;3.17;;;1.65;;
64959;SDS011;51487;52.266;10.542;2022-08-04T15:55:51;3.00;;;1.73;;
64959;SDS011;51487;52.266;10.542;2022-08-04T15:58:18;4.38;;;1.73;;
64959;SDS011;51487;52.266;10.542;2022-08-04T16:05:57;4.93;;;1.70;;
64959;SDS011;51487;52.266;10.542;2022-08-04T16:21:46;7.43;;;2.03;;
64959;SDS011;51487;52.266;10.542;2022-08-04T16:24:20;3.72;;;1.90;;
64959;SDS011;51487;52.266;10.542;2022-08-04T16:27:10;3.38;;;1.98;;
64959;SDS011;51487;52.266;10.542;2022-08-04T16:29:38;2.47;;;1.80;;
64959;SDS011;51487;52.266;10.542;2022-08-04T16:32:10;6.43;;;1.92;;
64959;SDS011;51487;52.266;10.542;2022-08-04T16:34:39;3.63;;;1.88;;
64959;SDS011;51487;52.266;10.542;2022-08-04T16:37:14;2.42;;;1.77;;
64959;SDS011;51487;52.266;10.542;2022-08-04T16:39:42;3.20;;;2.05;;
64959;SDS011;51487;52.266;10.542;2022-08-04T16:50:16;2.30;;;2.00;;
64959;SDS011;51487;52.266;10.542;2022-08-04T16:52:50;3.42;;;1.90;;
64959;SDS011;51487;52.266;10.542;2022-08-04T16:55:19;2.90;;;1.77;;
64959;SDS011;51487;52.266;10.542;2022-08-04T16:57:51;4.65;;;1.98;;
64959;SDS011;51487;52.266;10.542;2022-08-04T17:00:28;3.22;;;1.65;;
64959;SDS011;51487;52.266;10.542;2022-08-04T17:03:06;3.00;;;1.90;;
64959;SDS011;51487;52.266;10.542;2022-08-04T17:05:34;3.88;;;1.95;;
64959;SDS011;51487;52.266;10.542;2022-08-04T17:08:02;2.50;;;1.83;;
64959;SDS011;51487;52.266;10.542;2022-08-04T17:16:02;2.47;;;1.83;;
64959;SDS011;51487;52.266;10.542;2022-08-04T17:18:32;3.80;;;1.88;;
64959;SDS011;51487;52.266;10.542;2022-08-04T17:21:09;3.53;;;1.95;;
64959;SDS011;51487;52.266;10.542;2022-08-04T17:23:40;5.78;;;2.10;;
64959;SDS011;51487;52.266;10.542;2022-08-04T17:26:14;6.70;;;2.05;;
64959;SDS011;51487;52.266;10.542;2022-08-04T17:28:46;4.03;;;1.92;;
64959;SDS011;51487;52.266;10.542;2022-08-04T17:31:14;4.88;;;2.40;;
64959;SDS011;51487;52.266;10.542;2022-08-04T17:33:44;15.70;;;2.72;;
64959;SDS011;51487;52.266;10.542;2022-08-04T17:36:14;9.02;;;2.38;;
64959;SDS011;51487;52.266;10.542;2022-08-04T17:38:48;10.07;;;2.38;;
64959;SDS011;51487;52.266;10.542;2022-08-04T17:41:22;5.18;;;2.38;;
64959;SDS011;51487;52.266;10.542;2022-08-04T17:43:57;8.80;;;2.10;;
64959;SDS011;51487;52.266;10.542;2022-08-04T17:46:26;8.95;;;2.20;;
64959;SDS011;51487;52.266;10.542;2022-08-04T17:54:28;11.35;;;2.10;;
64959;SDS011;51487;52.266;10.542;2022-08-04T17:57:00;7.32;;;1.90;;
64959;SDS011;51487;52.266;10.542;2022-08-04T18:02:03;7.78;;;1.98;;
64959;SDS011;51487;52.266;10.542;2022-08-04T18:07:10;4.85;;;2.08;;
64959;SDS011;51487;52.266;10.542;2022-08-04T18:12:22;7.20;;;1.95;;
64959;SDS011;51487;52.266;10.542;2022-08-04T18:22:45;10.45;;;1.90;;
64959;SDS011;51487;52.266;10.542;2022-08-04T18:25:13;13.98;;;2.10;;
64959;SDS011;51487;52.266;10.542;2022-08-04T18:27:46;6.38;;;1.92;;
64959;SDS011;51487;52.266;10.542;2022-08-04T18:30:13;8.50;;;2.10;;
64959;SDS011;51487;52.266;10.542;2022-08-04T18:32:39;8.35;;;1.65;;
64959;SDS011;51487;52.266;10.542;2022-08-04T18:35:05;8.05;;;2.20;;
64959;SDS011;51487;52.266;10.542;2022-08-04T18:37:31;11.20;;;2.05;;
64959;SDS011;51487;52.266;10.542;2022-08-04T18:39:57;6.22;;;1.75;;
64959;SDS011;51487;52.266;10.542;2022-08-04T18:42:23;5.60;;;1.95;;
64959;SDS011;51487;52.266;10.542;2022-08-04T18:44:51;5.32;;;1.80;;
64959;SDS011;51487;52.266;10.542;2022-08-04T18:47:19;5.22;;;1.88;;
64959;SDS011;51487;52.266;10.542;2022-08-04T18:49:46;5.07;;;1.83;;
64959;SDS011;51487;52.266;10.542;2022-08-04T18:52:12;5.15;;;1.90;;
64959;SDS011;51487;52.266;10.542;2022-08-04T18:54:38;4.82;;;1.90;;
64959;SDS011;51487;52.266;10.542;2022-08-04T18:57:03;6.85;;;2.45;;
64959;SDS011;51487;52.266;10.542;2022-08-04T18:59:29;8.68;;;2.25;;
64959;SDS011;51487;52.266;10.542;2022-08-04T19:01:54;8.20;;;1.70;;
64959;SDS011;51487;52.266;10.542;2022-08-04T19:04:20;9.40;;;1.98;;
64959;SDS011;51487;52.266;10.542;2022-08-04T19:06:45;7.25;;;1.67;;
64959;SDS011;51487;52.266;10.542;2022-08-04T19:09:11;7.55;;;1.88;;
64959;SDS011;51487;52.266;10.542;2022-08-04T19:11:37;4.00;;;1.60;;
64959;SDS011;51487;52.266;10.542;2022-08-04T19:14:03;4.95;;;2.22;;
64959;SDS011;51487;52.266;10.542;2022-08-04T19:16:29;10.63;;;1.90;;
64959;SDS011;51487;52.266;10.542;2022-08-04T19:18:57;3.72;;;1.63;;
64959;SDS011;51487;52.266;10.542;2022-08-04T19:21:28;4.85;;;2.03;;
64959;SDS011;51487;52.266;10.542;2022-08-04T19:23:54;5.80;;;2.15;;
64959;SDS011;51487;52.266;10.542;2022-08-04T19:26:20;8.10;;;1.98;;
64959;SDS011;51487;52.266;10.542;2022-08-04T19:28:48;5.90;;;2.00;;
64959;SDS011;51487;52.266;10.542;2022-08-04T19:31:13;3.05;;;1.75;;
64959;SDS011;51487;52.266;10.542;2022-08-04T19:33:39;4.80;;;1.65;;
64959;SDS011;51487;52.266;10.542;2022-08-04T19:36:06;2.60;;;1.83;;
64959;SDS011;51487;52.266;10.542;2022-08-04T19:38:33;4.28;;;1.90;;
64959;SDS011;51487;52.266;10.542;2022-08-04T19:40:59;7.47;;;2.10;;
64959;SDS011;51487;52.266;10.542;2022-08-04T19:43:26;4.88;;;2.10;;
64959;SDS011;51487;52.266;10.542;2022-08-04T19:45:51;6.78;;;1.95;;
64959;SDS011;51487;52.266;10.542;2022-08-04T19:48:17;4.97;;;1.90;;
64959;SDS011;51487;52.266;10.542;2022-08-04T19:50:42;7.28;;;2.10;;
64959;SDS011;51487;52.266;10.542;2022-08-04T19:53:08;5.30;;;1.85;;
64959;SDS011;51487;52.266;10.542;2022-08-04T19:55:34;8.85;;;2.65;;
64959;SDS011;51487;52.266;10.542;2022-08-04T19:58:01;8.48;;;2.03;;
64959;SDS011;51487;52.266;10.542;2022-08-04T20:00:29;4.60;;;1.92;;
64959;SDS011;51487;52.266;10.542;2022-08-04T20:02:55;5.18;;;2.03;;
64959;SDS011;51487;52.266;10.542;2022-08-04T20:05:22;3.80;;;1.80;;
64959;SDS011;51487;52.266;10.542;2022-08-04T20:07:48;4.80;;;2.20;;
64959;SDS011;51487;52.266;10.542;2022-08-04T20:10:14;10.73;;;2.00;;
64959;SDS011;51487;52.266;10.542;2022-08-04T20:12:40;5.95;;;2.13;;
64959;SDS011;51487;52.266;10.542;2022-08-04T20:15:06;2.85;;;1.98;;
64959;SDS011;51487;52.266;10.542;2022-08-04T20:17:33;6.35;;;1.83;;
64959;SDS011;51487;52.266;10.542;2022-08-04T20:20:00;6.60;;;2.10;;
64959;SDS011;51487;52.266;10.542;2022-08-04T20:22:30;4.78;;;1.92;;
64959;SDS011;51487;52.266;10.542;2022-08-04T20:24:56;6.82;;;2.10;;
64959;SDS011;51487;52.266;10.542;2022-08-04T20:27:22;5.07;;;2.00;;
64959;SDS011;51487;52.266;10.542;2022-08-04T20:29:49;5.57;;;2.08;;